sensor_id;sensor_type;location;lat;lon;timestamp;temperature;humidity
6810;DHT22;3443;48.812;9.112;2023-01-01T00:00:38;13.50;99.90
6810;DHT22;3443;48.812;9.112;2023-01-01T00:03:03;13.50;99.90
6810;DHT22;3443;48.812;9.112;2023-01-01T00:05:29;13.60;99.90
6810;DHT22;3443;48.812;9.112;2023-01-01T00:07:54;13.60;99.90
6810;DHT22;3443;48.812;9.112;2023-01-01T00:10:20;13.60;99.90
6810;DHT22;3443;48.812;9.112;2023-01-01T00:12:58;13.50;99.90
6810;DHT22;3443;48.812;9.112;2023-01-01T00:15:25;13.60;99.90
6810;DHT22;3443;48.812;9.112;2023-01-01T00:17:52;13.60;99.90
6810;DHT22;3443;48.812;9.112;2023-01-01T00:20:17;13.50;99.90
6810;DHT22;3443;48.812;9.112;2023-01-01T00:22:43;13.50;99.90
6810;DHT22;3443;48.812;9.112;2023-01-01T00:25:10;13.50;99.90
6810;DHT22;3443;48.812;9.112;2023-01-01T00:27:40;13.60;99.90
6810;DHT22;3443;48.812;9.112;2023-01-01T00:30:07;13.60;99.90
6810;DHT22;3443;48.812;9.112;2023-01-01T00:32:33;13.60;99.90
6810;DHT22;3443;48.812;9.112;2023-01-01T00:34:58;13.70;99.90
6810;DHT22;3443;48.812;9.112;2023-01-01T00:37:24;13.60;99.90
6810;DHT22;3443;48.812;9.112;2023-01-01T00:39:49;13.60;99.90
6810;DHT22;3443;48.812;9.112;2023-01-01T00:42:15;13.60;99.90
6810;DHT22;3443;48.812;9.112;2023-01-01T00:44:40;13.60;99.90
6810;DHT22;3443;48.812;9.112;2023-01-01T00:47:06;13.60;99.90
6810;DHT22;3443;48.812;9.112;2023-01-01T00:49:32;13.60;99.90
6810;DHT22;3443;48.812;9.112;2023-01-01T00:51:57;13.60;99.90
6810;DHT22;3443;48.812;9.112;2023-01-01T00:54:23;13.60;99.90
6810;DHT22;3443;48.812;9.112;2023-01-01T00:56:48;13.60;99.90
6810;DHT22;3443;48.812;9.112;2023-01-01T00:59:14;13.60;99.90
6810;DHT22;3443;48.812;9.112;2023-01-01T01:01:39;13.60;99.90
6810;DHT22;3443;48.812;9.112;2023-01-01T01:04:05;13.60;99.90
6810;DHT22;3443;48.812;9.112;2023-01-01T01:06:31;13.50;99.90
6810;DHT22;3443;48.812;9.112;2023-01-01T01:08:57;13.50;99.90
6810;DHT22;3443;48.812;9.112;2023-01-01T01:11:24;13.40;99.90
6810;DHT22;3443;48.812;9.112;2023-01-01T01:13:54;13.40;99.90
6810;DHT22;3443;48.812;9.112;2023-01-01T01:16:26;13.40;99.90
6810;DHT22;3443;48.812;9.112;2023-01-01T01:18:54;13.30;99.90
6810;DHT22;3443;48.812;9.112;2023-01-01T01:21:23;13.30;99.90
6810;DHT22;3443;48.812;9.112;2023-01-01T01:23:49;13.20;99.90
6810;DHT22;3443;48.812;9.112;2023-01-01T01:26:21;13.20;99.90
6810;DHT22;3443;48.812;9.112;2023-01-01T01:28:46;13.20;99.90
6810;DHT22;3443;48.812;9.112;2023-01-01T01:31:12;13.20;99.90
6810;DHT22;3443;48.812;9.112;2023-01-01T01:33:38;13.20;99.90
6810;DHT22;3443;48.812;9.112;2023-01-01T01:36:04;13.20;99.90
6810;DHT22;3443;48.812;9.112;2023-01-01T01:38:31;13.40;99.90
6810;DHT22;3443;48.812;9.112;2023-01-01T01:40:57;13.40;99.90
6810;DHT22;3443;48.812;9.112;2023-01-01T01:46:10;13.50;99.90
6810;DHT22;3443;48.812;9.112;2023-01-01T01:48:39;13.60;99.90
6810;DHT22;3443;48.812;9.112;2023-01-01T01:51:06;13.60;99.90
6810;DHT22;3443;48.812;9.112;2023-01-01T01:53:34;13.60;99.90
6810;DHT22;3443;48.812;9.112;2023-01-01T01:56:07;13.60;99.90
6810;DHT22;3443;48.812;9.112;2023-01-01T01:58:34;13.60;99.90
6810;DHT22;3443;48.812;9.112;2023-01-01T02:01:01;13.60;99.90
6810;DHT22;3443;48.812;9.112;2023-01-01T02:03:43;13.60;99.90
6810;DHT22;3443;48.812;9.112;2023-01-01T02:06:10;13.60;99.90
6810;DHT22;3443;48.812;9.112;2023-01-01T02:08:36;13.60;99.90
6810;DHT22;3443;48.812;9.112;2023-01-01T02:11:02;13.70;99.90
6810;DHT22;3443;48.812;9.112;2023-01-01T02:13:28;13.80;99.90
6810;DHT22;3443;48.812;9.112;2023-01-01T02:15:59;13.90;99.90
6810;DHT22;3443;48.812;9.112;2023-01-01T02:21:33;14.00;99.90
6810;DHT22;3443;48.812;9.112;2023-01-01T02:24:39;14.00;99.90
6810;DHT22;3443;48.812;9.112;2023-01-01T02:27:25;14.00;99.90
6810;DHT22;3443;48.812;9.112;2023-01-01T02:30:04;14.00;99.90
6810;DHT22;3443;48.812;9.112;2023-01-01T02:32:45;14.00;99.90
6810;DHT22;3443;48.812;9.112;2023-01-01T02:35:25;14.00;99.90
6810;DHT22;3443;48.812;9.112;2023-01-01T02:38:25;14.00;99.90
6810;DHT22;3443;48.812;9.112;2023-01-01T02:40:56;14.10;99.90
6810;DHT22;3443;48.812;9.112;2023-01-01T02:43:22;14.20;99.90
6810;DHT22;3443;48.812;9.112;2023-01-01T02:45:47;14.20;99.90
6810;DHT22;3443;48.812;9.112;2023-01-01T02:55:00;14.10;99.90
6810;DHT22;3443;48.812;9.112;2023-01-01T02:57:35;14.10;99.90
6810;DHT22;3443;48.812;9.112;2023-01-01T03:00:06;14.10;99.90
6810;DHT22;3443;48.812;9.112;2023-01-01T03:08:48;13.90;99.90
6810;DHT22;3443;48.812;9.112;2023-01-01T03:11:18;13.90;99.90
6810;DHT22;3443;48.812;9.112;2023-01-01T03:14:01;13.90;99.90
6810;DHT22;3443;48.812;9.112;2023-01-01T03:16:42;13.70;99.90
6810;DHT22;3443;48.812;9.112;2023-01-01T03:19:19;13.80;99.90
6810;DHT22;3443;48.812;9.112;2023-01-01T03:22:01;13.70;99.90
6810;DHT22;3443;48.812;9.112;2023-01-01T03:24:53;13.60;99.90
6810;DHT22;3443;48.812;9.112;2023-01-01T03:27:27;13.60;99.90
6810;DHT22;3443;48.812;9.112;2023-01-01T03:29:54;13.50;99.90
6810;DHT22;3443;48.812;9.112;2023-01-01T03:32:27;13.40;99.90
6810;DHT22;3443;48.812;9.112;2023-01-01T03:35:19;13.30;99.90
6810;DHT22;3443;48.812;9.112;2023-01-01T03:37:48;13.20;99.90
6810;DHT22;3443;48.812;9.112;2023-01-01T03:40:17;13.10;99.90
6810;DHT22;3443;48.812;9.112;2023-01-01T03:42:50;13.00;99.90
6810;DHT22;3443;48.812;9.112;2023-01-01T03:45:21;12.80;99.90
6810;DHT22;3443;48.812;9.112;2023-01-01T03:47:48;12.60;99.90
6810;DHT22;3443;48.812;9.112;2023-01-01T03:50:14;12.50;99.90
6810;DHT22;3443;48.812;9.112;2023-01-01T04:00:17;12.00;99.90
6810;DHT22;3443;48.812;9.112;2023-01-01T04:03:03;12.00;99.90
6810;DHT22;3443;48.812;9.112;2023-01-01T04:05:31;12.00;99.90
6810;DHT22;3443;48.812;9.112;2023-01-01T04:08:00;12.00;99.90
6810;DHT22;3443;48.812;9.112;2023-01-01T04:10:28;12.20;99.90
6810;DHT22;3443;48.812;9.112;2023-01-01T04:12:56;12.10;99.90
6810;DHT22;3443;48.812;9.112;2023-01-01T04:15:26;12.20;99.90
6810;DHT22;3443;48.812;9.112;2023-01-01T04:17:52;12.20;99.90
6810;DHT22;3443;48.812;9.112;2023-01-01T04:20:19;12.20;99.90
6810;DHT22;3443;48.812;9.112;2023-01-01T04:22:45;12.20;99.90
6810;DHT22;3443;48.812;9.112;2023-01-01T04:25:11;12.20;99.90
6810;DHT22;3443;48.812;9.112;2023-01-01T04:27:37;12.20;99.90
6810;DHT22;3443;48.812;9.112;2023-01-01T04:30:05;12.10;99.90
6810;DHT22;3443;48.812;9.112;2023-01-01T04:32:32;12.00;99.90
6810;DHT22;3443;48.812;9.112;2023-01-01T04:34:57;12.00;99.90
6810;DHT22;3443;48.812;9.112;2023-01-01T04:37:23;12.00;99.90
6810;DHT22;3443;48.812;9.112;2023-01-01T04:39:48;12.00;99.90
6810;DHT22;3443;48.812;9.112;2023-01-01T04:42:14;12.10;99.90
6810;DHT22;3443;48.812;9.112;2023-01-01T04:44:39;12.20;99.90
6810;DHT22;3443;48.812;9.112;2023-01-01T04:47:05;12.20;99.90
6810;DHT22;3443;48.812;9.112;2023-01-01T04:49:31;12.10;99.90
6810;DHT22;3443;48.812;9.112;2023-01-01T04:51:56;12.20;99.90
6810;DHT22;3443;48.812;9.112;2023-01-01T04:54:22;12.20;99.90
6810;DHT22;3443;48.812;9.112;2023-01-01T04:56:47;12.20;99.90
6810;DHT22;3443;48.812;9.112;2023-01-01T04:59:13;12.30;99.90
6810;DHT22;3443;48.812;9.112;2023-01-01T05:01:38;12.30;99.90
6810;DHT22;3443;48.812;9.112;2023-01-01T05:04:04;12.40;99.90
6810;DHT22;3443;48.812;9.112;2023-01-01T05:06:30;12.50;99.90
6810;DHT22;3443;48.812;9.112;2023-01-01T05:08:56;12.60;99.90
6810;DHT22;3443;48.812;9.112;2023-01-01T05:11:27;12.60;99.90
6810;DHT22;3443;48.812;9.112;2023-01-01T05:13:56;12.70;99.90
6810;DHT22;3443;48.812;9.112;2023-01-01T05:16:24;12.60;99.90
6810;DHT22;3443;48.812;9.112;2023-01-01T05:18:50;12.70;99.90
6810;DHT22;3443;48.812;9.112;2023-01-01T05:21:21;12.70;99.90
6810;DHT22;3443;48.812;9.112;2023-01-01T05:23:47;12.80;99.90
6810;DHT22;3443;48.812;9.112;2023-01-01T05:28:38;12.80;99.90
6810;DHT22;3443;48.812;9.112;2023-01-01T05:31:18;12.80;99.90
6810;DHT22;3443;48.812;9.112;2023-01-01T05:33:44;12.80;99.90
6810;DHT22;3443;48.812;9.112;2023-01-01T05:36:17;12.90;99.90
6810;DHT22;3443;48.812;9.112;2023-01-01T05:38:43;12.90;99.90
6810;DHT22;3443;48.812;9.112;2023-01-01T05:41:12;13.00;99.90
6810;DHT22;3443;48.812;9.112;2023-01-01T05:43:38;13.00;99.90
6810;DHT22;3443;48.812;9.112;2023-01-01T05:46:06;13.00;99.90
6810;DHT22;3443;48.812;9.112;2023-01-01T05:48:32;13.00;99.90
6810;DHT22;3443;48.812;9.112;2023-01-01T05:51:06;13.00;99.90
6810;DHT22;3443;48.812;9.112;2023-01-01T05:53:32;13.00;99.90
6810;DHT22;3443;48.812;9.112;2023-01-01T05:55:59;13.00;99.90
6810;DHT22;3443;48.812;9.112;2023-01-01T05:58:27;13.00;99.90
6810;DHT22;3443;48.812;9.112;2023-01-01T06:00:53;13.00;99.90
6810;DHT22;3443;48.812;9.112;2023-01-01T06:03:18;13.00;99.90
6810;DHT22;3443;48.812;9.112;2023-01-01T06:05:44;13.10;99.90
6810;DHT22;3443;48.812;9.112;2023-01-01T06:08:10;13.00;99.90
6810;DHT22;3443;48.812;9.112;2023-01-01T06:10:36;13.00;99.90
6810;DHT22;3443;48.812;9.112;2023-01-01T06:13:01;13.00;99.90
6810;DHT22;3443;48.812;9.112;2023-01-01T06:15:27;13.00;99.90
6810;DHT22;3443;48.812;9.112;2023-01-01T06:17:53;13.00;99.90
6810;DHT22;3443;48.812;9.112;2023-01-01T06:20:19;13.00;99.90
6810;DHT22;3443;48.812;9.112;2023-01-01T06:22:44;13.00;99.90
6810;DHT22;3443;48.812;9.112;2023-01-01T06:25:10;13.00;99.90
6810;DHT22;3443;48.812;9.112;2023-01-01T06:27:36;13.00;99.90
6810;DHT22;3443;48.812;9.112;2023-01-01T06:30:06;13.00;99.90
6810;DHT22;3443;48.812;9.112;2023-01-01T06:32:32;13.00;99.90
6810;DHT22;3443;48.812;9.112;2023-01-01T06:34:58;12.90;99.90
6810;DHT22;3443;48.812;9.112;2023-01-01T06:37:24;13.00;99.90
6810;DHT22;3443;48.812;9.112;2023-01-01T06:39:50;13.00;99.90
6810;DHT22;3443;48.812;9.112;2023-01-01T06:42:15;13.00;99.90
6810;DHT22;3443;48.812;9.112;2023-01-01T06:44:41;13.00;99.90
6810;DHT22;3443;48.812;9.112;2023-01-01T06:47:06;13.00;99.90
6810;DHT22;3443;48.812;9.112;2023-01-01T06:49:32;13.00;99.90
6810;DHT22;3443;48.812;9.112;2023-01-01T06:51:58;12.90;99.90
6810;DHT22;3443;48.812;9.112;2023-01-01T06:54:24;12.90;99.90
6810;DHT22;3443;48.812;9.112;2023-01-01T06:56:49;13.00;99.90
6810;DHT22;3443;48.812;9.112;2023-01-01T06:59:16;12.90;99.90
6810;DHT22;3443;48.812;9.112;2023-01-01T07:01:42;12.80;99.90
6810;DHT22;3443;48.812;9.112;2023-01-01T07:04:11;12.80;99.90
6810;DHT22;3443;48.812;9.112;2023-01-01T07:06:37;12.70;99.90
6810;DHT22;3443;48.812;9.112;2023-01-01T07:09:04;12.70;99.90
6810;DHT22;3443;48.812;9.112;2023-01-01T07:11:30;12.60;99.90
6810;DHT22;3443;48.812;9.112;2023-01-01T07:13:56;12.60;99.90
6810;DHT22;3443;48.812;9.112;2023-01-01T07:16:22;12.60;99.90
6810;DHT22;3443;48.812;9.112;2023-01-01T07:18:48;12.50;99.90
6810;DHT22;3443;48.812;9.112;2023-01-01T07:21:28;12.40;99.90
6810;DHT22;3443;48.812;9.112;2023-01-01T07:23:54;12.40;99.90
6810;DHT22;3443;48.812;9.112;2023-01-01T07:26:24;12.30;99.90
6810;DHT22;3443;48.812;9.112;2023-01-01T07:28:50;12.30;99.90
6810;DHT22;3443;48.812;9.112;2023-01-01T07:31:15;12.20;99.90
6810;DHT22;3443;48.812;9.112;2023-01-01T07:33:41;12.30;99.90
6810;DHT22;3443;48.812;9.112;2023-01-01T07:36:07;12.30;99.90
6810;DHT22;3443;48.812;9.112;2023-01-01T07:38:33;12.40;99.90
6810;DHT22;3443;48.812;9.112;2023-01-01T07:40:58;12.40;99.90
6810;DHT22;3443;48.812;9.112;2023-01-01T07:43:24;12.40;99.90
6810;DHT22;3443;48.812;9.112;2023-01-01T07:45:49;12.40;99.90
6810;DHT22;3443;48.812;9.112;2023-01-01T07:48:15;12.40;99.90
6810;DHT22;3443;48.812;9.112;2023-01-01T07:50:41;12.50;99.90
6810;DHT22;3443;48.812;9.112;2023-01-01T07:53:07;12.60;99.90
6810;DHT22;3443;48.812;9.112;2023-01-01T07:55:33;12.60;99.90
6810;DHT22;3443;48.812;9.112;2023-01-01T07:57:59;12.60;99.90
6810;DHT22;3443;48.812;9.112;2023-01-01T08:00:25;12.60;99.90
6810;DHT22;3443;48.812;9.112;2023-01-01T08:02:51;12.60;99.90
6810;DHT22;3443;48.812;9.112;2023-01-01T08:05:16;12.70;99.90
6810;DHT22;3443;48.812;9.112;2023-01-01T08:07:49;12.80;99.90
6810;DHT22;3443;48.812;9.112;2023-01-01T08:10:15;12.80;99.90
6810;DHT22;3443;48.812;9.112;2023-01-01T08:12:41;12.80;99.90
6810;DHT22;3443;48.812;9.112;2023-01-01T08:15:07;12.80;99.90
6810;DHT22;3443;48.812;9.112;2023-01-01T08:17:33;12.80;99.90
6810;DHT22;3443;48.812;9.112;2023-01-01T08:19:59;12.80;99.90
6810;DHT22;3443;48.812;9.112;2023-01-01T08:22:24;12.80;99.90
6810;DHT22;3443;48.812;9.112;2023-01-01T08:24:50;12.80;99.90
6810;DHT22;3443;48.812;9.112;2023-01-01T08:27:16;12.90;99.90
6810;DHT22;3443;48.812;9.112;2023-01-01T08:29:42;12.90;99.90
6810;DHT22;3443;48.812;9.112;2023-01-01T08:32:09;12.90;99.90
6810;DHT22;3443;48.812;9.112;2023-01-01T08:34:34;12.90;99.90
6810;DHT22;3443;48.812;9.112;2023-01-01T08:37:00;13.00;99.90
6810;DHT22;3443;48.812;9.112;2023-01-01T08:39:26;13.00;99.90
6810;DHT22;3443;48.812;9.112;2023-01-01T08:41:51;12.90;99.90
6810;DHT22;3443;48.812;9.112;2023-01-01T08:44:17;12.90;99.90
6810;DHT22;3443;48.812;9.112;2023-01-01T08:46:43;12.90;99.90
6810;DHT22;3443;48.812;9.112;2023-01-01T08:49:08;13.00;99.90
6810;DHT22;3443;48.812;9.112;2023-01-01T08:51:34;13.10;99.90
6810;DHT22;3443;48.812;9.112;2023-01-01T08:53:59;13.10;99.90
6810;DHT22;3443;48.812;9.112;2023-01-01T08:56:25;13.20;99.90
6810;DHT22;3443;48.812;9.112;2023-01-01T08:58:50;13.30;99.90
6810;DHT22;3443;48.812;9.112;2023-01-01T09:01:16;13.40;99.90
6810;DHT22;3443;48.812;9.112;2023-01-01T09:03:42;13.40;99.90
6810;DHT22;3443;48.812;9.112;2023-01-01T09:06:07;13.50;99.90
6810;DHT22;3443;48.812;9.112;2023-01-01T09:08:33;13.50;99.90
6810;DHT22;3443;48.812;9.112;2023-01-01T09:11:01;13.60;99.90
6810;DHT22;3443;48.812;9.112;2023-01-01T09:13:27;13.60;99.90
6810;DHT22;3443;48.812;9.112;2023-01-01T09:15:53;13.60;99.90
6810;DHT22;3443;48.812;9.112;2023-01-01T09:18:19;13.60;99.90
6810;DHT22;3443;48.812;9.112;2023-01-01T09:20:44;13.70;99.90
6810;DHT22;3443;48.812;9.112;2023-01-01T09:23:11;13.70;99.90
6810;DHT22;3443;48.812;9.112;2023-01-01T09:25:37;13.70;99.90
6810;DHT22;3443;48.812;9.112;2023-01-01T09:28:09;13.60;99.90
6810;DHT22;3443;48.812;9.112;2023-01-01T09:30:35;13.70;99.90
6810;DHT22;3443;48.812;9.112;2023-01-01T09:33:02;13.80;99.90
6810;DHT22;3443;48.812;9.112;2023-01-01T09:35:28;13.70;99.90
6810;DHT22;3443;48.812;9.112;2023-01-01T09:37:55;13.70;99.90
6810;DHT22;3443;48.812;9.112;2023-01-01T09:46:01;13.80;99.90
6810;DHT22;3443;48.812;9.112;2023-01-01T09:48:29;13.80;99.90
6810;DHT22;3443;48.812;9.112;2023-01-01T09:50:56;13.80;99.90
6810;DHT22;3443;48.812;9.112;2023-01-01T09:56:02;14.00;99.90
6810;DHT22;3443;48.812;9.112;2023-01-01T09:58:37;14.00;99.90
6810;DHT22;3443;48.812;9.112;2023-01-01T10:04:21;14.10;99.90
6810;DHT22;3443;48.812;9.112;2023-01-01T10:12:32;14.40;99.90
6810;DHT22;3443;48.812;9.112;2023-01-01T10:15:13;14.40;99.90
6810;DHT22;3443;48.812;9.112;2023-01-01T10:17:44;14.40;99.90
6810;DHT22;3443;48.812;9.112;2023-01-01T10:22:46;14.60;99.90
6810;DHT22;3443;48.812;9.112;2023-01-01T10:25:21;14.70;99.90
6810;DHT22;3443;48.812;9.112;2023-01-01T10:28:13;14.70;99.90
6810;DHT22;3443;48.812;9.112;2023-01-01T10:30:40;14.80;99.90
6810;DHT22;3443;48.812;9.112;2023-01-01T10:33:12;14.80;99.90
6810;DHT22;3443;48.812;9.112;2023-01-01T10:35:46;14.90;99.90
6810;DHT22;3443;48.812;9.112;2023-01-01T10:38:23;14.90;99.90
6810;DHT22;3443;48.812;9.112;2023-01-01T10:40:50;15.00;99.90
6810;DHT22;3443;48.812;9.112;2023-01-01T10:43:17;15.00;99.90
6810;DHT22;3443;48.812;9.112;2023-01-01T10:45:49;15.10;99.90
6810;DHT22;3443;48.812;9.112;2023-01-01T10:48:24;15.10;99.90
6810;DHT22;3443;48.812;9.112;2023-01-01T10:56:11;15.30;99.90
6810;DHT22;3443;48.812;9.112;2023-01-01T10:58:44;15.40;99.90
6810;DHT22;3443;48.812;9.112;2023-01-01T11:01:33;15.40;99.90
6810;DHT22;3443;48.812;9.112;2023-01-01T11:04:16;15.50;99.90
6810;DHT22;3443;48.812;9.112;2023-01-01T11:06:44;15.60;99.90
6810;DHT22;3443;48.812;9.112;2023-01-01T11:09:25;15.60;99.90
6810;DHT22;3443;48.812;9.112;2023-01-01T11:11:57;15.60;99.90
6810;DHT22;3443;48.812;9.112;2023-01-01T11:14:43;15.60;99.90
6810;DHT22;3443;48.812;9.112;2023-01-01T11:17:20;15.70;99.90
6810;DHT22;3443;48.812;9.112;2023-01-01T11:19:48;15.70;99.90
6810;DHT22;3443;48.812;9.112;2023-01-01T11:22:33;15.80;99.90
6810;DHT22;3443;48.812;9.112;2023-01-01T11:25:01;15.80;99.90
6810;DHT22;3443;48.812;9.112;2023-01-01T11:27:27;15.90;99.90
6810;DHT22;3443;48.812;9.112;2023-01-01T11:30:18;16.00;99.90
6810;DHT22;3443;48.812;9.112;2023-01-01T11:32:44;16.00;99.90
6810;DHT22;3443;48.812;9.112;2023-01-01T11:35:18;16.10;99.90
6810;DHT22;3443;48.812;9.112;2023-01-01T11:37:45;16.10;99.90
6810;DHT22;3443;48.812;9.112;2023-01-01T11:40:21;16.20;99.90
6810;DHT22;3443;48.812;9.112;2023-01-01T11:42:53;16.20;99.90
6810;DHT22;3443;48.812;9.112;2023-01-01T11:45:24;16.20;99.90
6810;DHT22;3443;48.812;9.112;2023-01-01T11:47:59;16.30;99.90
6810;DHT22;3443;48.812;9.112;2023-01-01T11:50:31;16.30;99.90
6810;DHT22;3443;48.812;9.112;2023-01-01T11:53:37;16.30;99.90
6810;DHT22;3443;48.812;9.112;2023-01-01T12:01:11;16.30;99.90
6810;DHT22;3443;48.812;9.112;2023-01-01T12:03:49;16.30;99.90
6810;DHT22;3443;48.812;9.112;2023-01-01T12:09:02;16.30;99.90
6810;DHT22;3443;48.812;9.112;2023-01-01T12:11:43;16.40;99.90
6810;DHT22;3443;48.812;9.112;2023-01-01T12:22:27;16.60;99.90
6810;DHT22;3443;48.812;9.112;2023-01-01T12:24:53;16.60;99.90
6810;DHT22;3443;48.812;9.112;2023-01-01T12:27:36;16.60;99.90
6810;DHT22;3443;48.812;9.112;2023-01-01T12:32:58;16.70;99.90
6810;DHT22;3443;48.812;9.112;2023-01-01T12:36:37;16.70;99.90
6810;DHT22;3443;48.812;9.112;2023-01-01T12:46:46;16.80;99.90
6810;DHT22;3443;48.812;9.112;2023-01-01T13:00:15;16.70;99.90
6810;DHT22;3443;48.812;9.112;2023-01-01T13:03:18;16.70;99.90
6810;DHT22;3443;48.812;9.112;2023-01-01T13:05:47;16.70;99.90
6810;DHT22;3443;48.812;9.112;2023-01-01T13:08:13;16.70;99.90
6810;DHT22;3443;48.812;9.112;2023-01-01T13:10:44;16.80;99.90
6810;DHT22;3443;48.812;9.112;2023-01-01T13:13:12;16.80;99.90
6810;DHT22;3443;48.812;9.112;2023-01-01T13:31:59;16.80;99.90
6810;DHT22;3443;48.812;9.112;2023-01-01T13:34:33;16.80;99.90
6810;DHT22;3443;48.812;9.112;2023-01-01T13:42:36;17.00;99.90
6810;DHT22;3443;48.812;9.112;2023-01-01T13:45:02;17.00;99.90
6810;DHT22;3443;48.812;9.112;2023-01-01T13:47:59;17.00;99.90
6810;DHT22;3443;48.812;9.112;2023-01-01T13:50:37;16.90;99.90
6810;DHT22;3443;48.812;9.112;2023-01-01T13:58:53;16.60;99.90
6810;DHT22;3443;48.812;9.112;2023-01-01T14:01:40;16.50;99.90
6810;DHT22;3443;48.812;9.112;2023-01-01T14:04:36;16.50;99.90
6810;DHT22;3443;48.812;9.112;2023-01-01T14:10:14;16.40;99.90
6810;DHT22;3443;48.812;9.112;2023-01-01T14:12:39;16.30;99.90
6810;DHT22;3443;48.812;9.112;2023-01-01T14:15:29;16.40;99.90
6810;DHT22;3443;48.812;9.112;2023-01-01T14:17:57;16.40;99.90
6810;DHT22;3443;48.812;9.112;2023-01-01T14:20:33;16.30;99.90
6810;DHT22;3443;48.812;9.112;2023-01-01T14:23:08;16.30;99.90
6810;DHT22;3443;48.812;9.112;2023-01-01T14:25:35;16.20;99.90
6810;DHT22;3443;48.812;9.112;2023-01-01T14:28:01;16.10;99.90
6810;DHT22;3443;48.812;9.112;2023-01-01T14:30:30;16.10;99.90
6810;DHT22;3443;48.812;9.112;2023-01-01T14:33:01;16.00;99.90
6810;DHT22;3443;48.812;9.112;2023-01-01T14:35:27;15.90;99.90
6810;DHT22;3443;48.812;9.112;2023-01-01T14:37:53;15.80;99.90
6810;DHT22;3443;48.812;9.112;2023-01-01T14:40:25;15.80;99.90
6810;DHT22;3443;48.812;9.112;2023-01-01T14:43:11;15.70;99.90
6810;DHT22;3443;48.812;9.112;2023-01-01T14:45:41;15.70;99.90
6810;DHT22;3443;48.812;9.112;2023-01-01T14:48:17;15.70;99.90
6810;DHT22;3443;48.812;9.112;2023-01-01T14:50:46;15.60;99.90
6810;DHT22;3443;48.812;9.112;2023-01-01T14:53:15;15.60;99.90
6810;DHT22;3443;48.812;9.112;2023-01-01T14:55:46;15.60;99.90
6810;DHT22;3443;48.812;9.112;2023-01-01T14:58:18;15.50;99.90
6810;DHT22;3443;48.812;9.112;2023-01-01T15:00:45;15.40;99.90
6810;DHT22;3443;48.812;9.112;2023-01-01T15:03:21;15.30;99.90
6810;DHT22;3443;48.812;9.112;2023-01-01T15:06:01;15.20;99.90
6810;DHT22;3443;48.812;9.112;2023-01-01T15:08:27;15.30;99.90
6810;DHT22;3443;48.812;9.112;2023-01-01T15:10:54;15.20;99.90
6810;DHT22;3443;48.812;9.112;2023-01-01T15:13:23;15.10;99.90
6810;DHT22;3443;48.812;9.112;2023-01-01T15:16:00;15.10;99.90
6810;DHT22;3443;48.812;9.112;2023-01-01T15:18:43;14.90;99.90
6810;DHT22;3443;48.812;9.112;2023-01-01T15:24:06;14.80;99.90
6810;DHT22;3443;48.812;9.112;2023-01-01T15:26:40;14.60;99.90
6810;DHT22;3443;48.812;9.112;2023-01-01T15:29:09;14.60;99.90
6810;DHT22;3443;48.812;9.112;2023-01-01T15:31:38;14.40;99.90
6810;DHT22;3443;48.812;9.112;2023-01-01T15:34:05;14.30;99.90
6810;DHT22;3443;48.812;9.112;2023-01-01T15:36:31;14.20;99.90
6810;DHT22;3443;48.812;9.112;2023-01-01T15:38:57;14.10;99.90
6810;DHT22;3443;48.812;9.112;2023-01-01T15:41:47;14.00;99.90
6810;DHT22;3443;48.812;9.112;2023-01-01T15:46:50;13.90;99.90
6810;DHT22;3443;48.812;9.112;2023-01-01T15:49:26;13.90;99.90
6810;DHT22;3443;48.812;9.112;2023-01-01T15:51:58;13.80;99.90
6810;DHT22;3443;48.812;9.112;2023-01-01T15:54:26;13.80;99.90
6810;DHT22;3443;48.812;9.112;2023-01-01T15:56:52;13.70;99.90
6810;DHT22;3443;48.812;9.112;2023-01-01T16:01:48;13.70;99.90
6810;DHT22;3443;48.812;9.112;2023-01-01T16:04:25;13.70;99.90
6810;DHT22;3443;48.812;9.112;2023-01-01T16:06:52;13.70;99.90
6810;DHT22;3443;48.812;9.112;2023-01-01T16:09:19;13.60;99.90
6810;DHT22;3443;48.812;9.112;2023-01-01T16:11:50;13.60;99.90
6810;DHT22;3443;48.812;9.112;2023-01-01T16:14:16;13.50;99.90
6810;DHT22;3443;48.812;9.112;2023-01-01T16:16:45;13.50;99.90
6810;DHT22;3443;48.812;9.112;2023-01-01T16:19:16;13.40;99.90
6810;DHT22;3443;48.812;9.112;2023-01-01T16:21:42;13.30;99.90
6810;DHT22;3443;48.812;9.112;2023-01-01T16:24:15;13.30;99.90
6810;DHT22;3443;48.812;9.112;2023-01-01T16:26:41;13.20;99.90
6810;DHT22;3443;48.812;9.112;2023-01-01T16:29:07;13.20;99.90
6810;DHT22;3443;48.812;9.112;2023-01-01T16:31:33;13.10;99.90
6810;DHT22;3443;48.812;9.112;2023-01-01T16:33:59;13.00;99.90
6810;DHT22;3443;48.812;9.112;2023-01-01T16:36:25;13.00;99.90
6810;DHT22;3443;48.812;9.112;2023-01-01T16:38:54;13.00;99.90
6810;DHT22;3443;48.812;9.112;2023-01-01T16:41:20;13.00;99.90
6810;DHT22;3443;48.812;9.112;2023-01-01T16:43:46;13.00;99.90
6810;DHT22;3443;48.812;9.112;2023-01-01T16:46:12;12.90;99.90
6810;DHT22;3443;48.812;9.112;2023-01-01T16:48:38;12.80;99.90
6810;DHT22;3443;48.812;9.112;2023-01-01T16:51:05;12.80;99.90
6810;DHT22;3443;48.812;9.112;2023-01-01T16:53:31;12.80;99.90
6810;DHT22;3443;48.812;9.112;2023-01-01T16:55:57;12.70;99.90
6810;DHT22;3443;48.812;9.112;2023-01-01T16:58:22;12.90;99.90
6810;DHT22;3443;48.812;9.112;2023-01-01T17:00:48;12.70;99.90
6810;DHT22;3443;48.812;9.112;2023-01-01T17:03:14;12.60;99.90
6810;DHT22;3443;48.812;9.112;2023-01-01T17:05:40;12.60;99.90
6810;DHT22;3443;48.812;9.112;2023-01-01T17:08:06;12.60;99.90
6810;DHT22;3443;48.812;9.112;2023-01-01T17:10:31;12.50;99.90
6810;DHT22;3443;48.812;9.112;2023-01-01T17:12:57;12.50;99.90
6810;DHT22;3443;48.812;9.112;2023-01-01T17:15:29;12.50;99.90
6810;DHT22;3443;48.812;9.112;2023-01-01T17:17:56;12.50;99.90
6810;DHT22;3443;48.812;9.112;2023-01-01T17:20:22;12.40;99.90
6810;DHT22;3443;48.812;9.112;2023-01-01T17:22:47;12.40;99.90
6810;DHT22;3443;48.812;9.112;2023-01-01T17:25:13;12.40;99.90
6810;DHT22;3443;48.812;9.112;2023-01-01T17:27:38;12.40;99.90
6810;DHT22;3443;48.812;9.112;2023-01-01T17:30:04;12.40;99.90
6810;DHT22;3443;48.812;9.112;2023-01-01T17:32:31;12.40;99.90
6810;DHT22;3443;48.812;9.112;2023-01-01T17:34:59;12.40;99.90
6810;DHT22;3443;48.812;9.112;2023-01-01T17:37:25;12.40;99.90
6810;DHT22;3443;48.812;9.112;2023-01-01T17:39:50;12.60;99.90
6810;DHT22;3443;48.812;9.112;2023-01-01T17:42:16;12.40;99.90
6810;DHT22;3443;48.812;9.112;2023-01-01T17:44:42;12.30;99.90
6810;DHT22;3443;48.812;9.112;2023-01-01T17:47:07;12.20;99.90
6810;DHT22;3443;48.812;9.112;2023-01-01T17:49:33;12.20;99.90
6810;DHT22;3443;48.812;9.112;2023-01-01T17:51:59;12.10;99.90
6810;DHT22;3443;48.812;9.112;2023-01-01T17:54:24;11.90;99.90
6810;DHT22;3443;48.812;9.112;2023-01-01T17:56:50;11.80;99.90
6810;DHT22;3443;48.812;9.112;2023-01-01T17:59:15;11.80;99.90
6810;DHT22;3443;48.812;9.112;2023-01-01T18:01:42;11.70;99.90
6810;DHT22;3443;48.812;9.112;2023-01-01T18:04:08;11.90;99.90
6810;DHT22;3443;48.812;9.112;2023-01-01T18:06:36;11.60;99.90
6810;DHT22;3443;48.812;9.112;2023-01-01T18:09:04;11.60;99.90
6810;DHT22;3443;48.812;9.112;2023-01-01T18:11:31;11.60;99.90
6810;DHT22;3443;48.812;9.112;2023-01-01T18:13:59;11.50;99.90
6810;DHT22;3443;48.812;9.112;2023-01-01T18:16:26;11.40;99.90
6810;DHT22;3443;48.812;9.112;2023-01-01T18:18:51;11.50;99.90
6810;DHT22;3443;48.812;9.112;2023-01-01T18:21:19;11.40;99.90
6810;DHT22;3443;48.812;9.112;2023-01-01T18:23:50;11.30;99.90
6810;DHT22;3443;48.812;9.112;2023-01-01T18:26:17;11.30;99.90